createdAt,value
2022-07-27T00:04:39.793Z,14.60
2022-07-27T00:09:42.125Z,13.20
2022-07-27T00:14:44.588Z,13.52
2022-07-27T00:24:49.509Z,15.75
2022-07-27T00:29:51.720Z,13.32
2022-07-27T00:34:53.903Z,12.95
2022-07-27T00:39:56.916Z,13.60
2022-07-27T00:44:59.364Z,13.95
2022-07-27T00:50:02.066Z,13.18
2022-07-27T00:55:05.349Z,14.13
2022-07-27T01:00:08.399Z,15.15
2022-07-27T01:05:10.685Z,14.20
2022-07-27T01:10:16.931Z,13.80
2022-07-27T01:15:19.619Z,13.32
2022-07-27T01:20:21.924Z,14.30
2022-07-27T01:25:24.189Z,14.82
2022-07-27T01:30:26.437Z,14.40
2022-07-27T01:35:29.610Z,14.60
2022-07-27T01:40:31.994Z,14.43
2022-07-27T01:45:34.509Z,14.40
2022-07-27T01:55:39.468Z,13.80
2022-07-27T02:00:42.259Z,14.43
2022-07-27T02:05:44.694Z,14.82
2022-07-27T02:11:06.940Z,14.73
2022-07-27T02:16:09.710Z,14.38
2022-07-27T02:21:19.116Z,15.00
2022-07-27T02:26:21.533Z,14.80
2022-07-27T02:31:23.800Z,15.25
2022-07-27T02:36:28.998Z,14.90
2022-07-27T02:41:31.201Z,14.55
2022-07-27T02:46:33.452Z,16.35
2022-07-27T02:51:36.232Z,14.07
2022-07-27T02:56:41.679Z,14.75
2022-07-27T03:01:44.414Z,14.48
2022-07-27T03:06:46.882Z,14.10
2022-07-27T03:11:49.033Z,14.50
2022-07-27T03:16:51.341Z,13.27
2022-07-27T03:21:53.593Z,13.88
2022-07-27T03:26:55.854Z,13.88
2022-07-27T03:31:58.042Z,15.57
2022-07-27T03:37:00.229Z,15.05
2022-07-27T03:42:02.504Z,14.82
2022-07-27T03:47:04.965Z,13.32
2022-07-27T03:52:07.218Z,13.63
2022-07-27T03:57:09.407Z,14.68
2022-07-27T04:02:11.741Z,14.25
2022-07-27T04:07:13.973Z,14.30
2022-07-27T04:12:17.291Z,14.68
2022-07-27T04:17:55.179Z,14.48
2022-07-27T04:22:44.264Z,15.30
2022-07-27T04:27:46.941Z,15.10
2022-07-27T04:32:49.120Z,15.27
2022-07-27T04:37:58.342Z,15.18
2022-07-27T04:43:03.812Z,14.20
2022-07-27T04:48:08.342Z,15.27
2022-07-27T04:53:11.702Z,15.65
2022-07-27T04:58:15.005Z,15.45
2022-07-27T05:03:17.171Z,15.40
2022-07-27T05:08:20.708Z,15.13
2022-07-27T05:13:22.920Z,17.23
2022-07-27T05:18:25.824Z,16.65
2022-07-27T05:23:28.132Z,14.90
2022-07-27T05:28:30.830Z,14.73
2022-07-27T05:33:33.021Z,15.70
2022-07-27T05:38:39.289Z,15.18
2022-07-27T05:43:41.611Z,17.83
2022-07-27T05:48:43.828Z,16.55
2022-07-27T05:58:48.047Z,18.17
2022-07-27T06:03:50.269Z,17.08
2022-07-27T06:13:55.950Z,16.55
2022-07-27T06:18:58.109Z,17.10
2022-07-27T06:29:02.346Z,16.75
2022-07-27T06:34:08.164Z,17.42
2022-07-27T06:39:14.478Z,17.05
2022-07-27T06:44:16.975Z,16.73
2022-07-27T06:49:19.190Z,16.40
2022-07-27T06:54:22.344Z,17.33
2022-07-27T06:59:24.495Z,16.67
2022-07-27T07:04:45.325Z,16.20
2022-07-27T07:09:47.503Z,16.38
2022-07-27T07:14:49.665Z,16.17
2022-07-27T07:19:51.784Z,15.70
2022-07-27T07:24:53.920Z,15.30
2022-07-27T07:29:56.283Z,15.23
2022-07-27T07:34:58.487Z,15.40
2022-07-27T07:40:12.968Z,14.35
2022-07-27T07:45:24.442Z,12.70
2022-07-27T07:50:27.640Z,13.20
2022-07-27T07:55:30.033Z,12.90
2022-07-27T08:00:33.205Z,14.77
2022-07-27T08:05:35.440Z,14.80
2022-07-27T08:10:37.825Z,13.68
2022-07-27T08:15:40.095Z,14.57
2022-07-27T08:20:42.263Z,13.80
2022-07-27T08:30:46.797Z,15.05
2022-07-27T08:35:48.991Z,16.05
2022-07-27T08:40:51.312Z,13.40
2022-07-27T08:45:56.842Z,14.35
2022-07-27T08:50:59.198Z,14.10
2022-07-27T08:56:02.028Z,14.68
2022-07-27T09:01:04.481Z,15.07
2022-07-27T09:06:06.801Z,15.50
2022-07-27T09:11:15.199Z,16.15
2022-07-27T09:16:19.734Z,15.02
2022-07-27T09:21:23.806Z,12.93
2022-07-27T09:26:32.573Z,13.18
2022-07-27T09:36:55.796Z,15.20
2022-07-27T09:42:01.186Z,13.70
2022-07-27T09:47:27.486Z,13.27
2022-07-27T09:52:30.751Z,13.25
2022-07-27T09:57:54.729Z,12.85
2022-07-27T10:02:59.237Z,13.50
2022-07-27T10:08:01.429Z,13.90
2022-07-27T10:13:05.014Z,14.70
2022-07-27T10:18:33.520Z,14.40
2022-07-27T10:23:40.103Z,13.75
2022-07-27T10:29:18.275Z,13.35
2022-07-27T10:40:17.306Z,13.15
2022-07-27T10:45:19.580Z,13.47
2022-07-27T10:50:25.863Z,13.73
2022-07-27T11:11:18.482Z,13.88
2022-07-27T11:16:24.478Z,12.85
2022-07-27T11:21:34.270Z,14.52
2022-07-27T11:26:41.061Z,14.05
2022-07-27T11:31:55.199Z,14.80
2022-07-27T11:37:01.952Z,14.85
2022-07-27T11:42:11.907Z,14.15
2022-07-27T11:47:19.783Z,14.40
2022-07-27T11:52:23.638Z,15.25
2022-07-27T11:57:32.126Z,15.68
2022-07-27T12:02:34.368Z,15.10
2022-07-27T12:07:37.238Z,15.05
2022-07-27T12:12:39.425Z,14.60
2022-07-27T12:17:43.153Z,15.27
2022-07-27T12:33:25.849Z,16.33
2022-07-27T12:38:50.253Z,15.93
2022-07-27T12:44:13.445Z,14.95
2022-07-27T12:49:16.774Z,16.85
2022-07-27T12:54:19.344Z,15.80
2022-07-27T12:59:23.445Z,15.05
2022-07-27T13:04:26.054Z,14.70
2022-07-27T13:10:01.800Z,15.52
2022-07-27T13:14:50.608Z,15.38
2022-07-27T13:19:52.870Z,15.43
2022-07-27T13:24:55.068Z,15.05
2022-07-27T13:29:59.793Z,15.35
2022-07-27T13:35:02.334Z,15.20
2022-07-27T13:40:05.490Z,15.65
2022-07-27T13:45:10.947Z,14.85
2022-07-27T13:50:18.819Z,14.15
2022-07-27T13:55:26.160Z,13.68
2022-07-27T14:00:30.279Z,13.52
2022-07-27T14:05:32.465Z,13.98
2022-07-27T14:10:41.612Z,13.32
2022-07-27T14:15:50.364Z,15.30
2022-07-27T14:26:00.530Z,14.57
2022-07-27T14:31:05.016Z,14.90
2022-07-27T14:36:09.151Z,13.48
2022-07-27T14:41:11.683Z,16.02
2022-07-27T14:46:13.938Z,15.02
2022-07-27T14:51:16.656Z,14.95
2022-07-27T14:56:18.865Z,14.90
2022-07-27T15:01:21.052Z,13.43
2022-07-27T15:06:23.412Z,15.02
2022-07-27T15:11:25.708Z,15.00
2022-07-27T15:16:27.922Z,14.80
2022-07-27T15:21:30.136Z,13.68
2022-07-27T15:26:32.976Z,13.50
2022-07-27T15:31:35.213Z,14.02
2022-07-27T15:36:43.842Z,13.70
2022-07-27T15:41:48.511Z,15.60
2022-07-27T15:46:50.751Z,15.85
2022-07-27T15:51:53.088Z,15.75
2022-07-27T15:56:56.465Z,16.83
2022-07-27T16:01:58.683Z,16.77
2022-07-27T16:07:01.215Z,15.55
2022-07-27T16:12:03.472Z,15.50
2022-07-27T16:17:05.703Z,16.00
2022-07-27T16:22:08.237Z,15.20
2022-07-27T16:27:10.579Z,15.27
2022-07-27T16:32:12.747Z,15.18
2022-07-27T16:37:14.901Z,15.43
2022-07-27T16:42:17.036Z,15.10
2022-07-27T16:47:19.183Z,15.07
2022-07-27T16:52:21.363Z,15.65
2022-07-27T16:57:24.554Z,16.02
2022-07-27T17:02:30.400Z,15.52
2022-07-27T17:07:32.902Z,15.50
2022-07-27T17:12:39.263Z,15.50
2022-07-27T17:17:41.659Z,15.25
2022-07-27T17:22:43.842Z,15.98
2022-07-27T17:32:48.959Z,15.23
2022-07-27T17:38:06.029Z,15.45
2022-07-27T17:43:09.174Z,15.95
2022-07-27T17:53:13.596Z,15.25
2022-07-27T18:03:17.801Z,16.10
2022-07-27T18:08:19.983Z,14.02
2022-07-27T18:13:22.231Z,15.25
2022-07-27T18:18:26.690Z,15.02
2022-07-27T18:23:30.658Z,14.55
2022-07-27T18:28:39.436Z,15.00
2022-07-27T18:33:45.860Z,15.13
2022-07-27T18:38:49.921Z,14.40
2022-07-27T18:43:52.192Z,15.00
2022-07-27T18:53:57.219Z,14.27
2022-07-27T19:04:02.002Z,14.27
2022-07-27T19:09:05.426Z,13.77
2022-07-27T19:14:08.192Z,13.82
2022-07-27T19:19:15.747Z,14.88
2022-07-27T19:24:20.168Z,13.77
2022-07-27T19:29:22.768Z,14.35
2022-07-27T19:34:25.365Z,13.75
2022-07-27T19:39:27.933Z,13.57
2022-07-27T19:44:50.027Z,13.80
2022-07-27T19:49:52.311Z,14.68
2022-07-27T19:54:54.484Z,15.00
2022-07-27T19:59:57.032Z,14.20
2022-07-27T20:04:59.294Z,13.00
2022-07-27T20:10:01.462Z,12.77
2022-07-27T20:15:04.795Z,13.60
2022-07-27T20:20:08.743Z,13.40
2022-07-27T20:25:11.032Z,14.10
2022-07-27T20:30:16.210Z,12.85
2022-07-27T20:35:19.094Z,13.20
2022-07-27T20:40:21.363Z,13.35
2022-07-27T20:45:23.905Z,14.15
2022-07-27T20:50:26.524Z,13.30
2022-07-27T20:55:28.749Z,13.45
2022-07-27T21:00:30.954Z,13.48
2022-07-27T21:05:33.864Z,13.73
2022-07-27T21:10:36.091Z,12.90
2022-07-27T21:15:38.285Z,14.57
2022-07-27T21:20:40.523Z,13.32
2022-07-27T21:25:43.888Z,14.30
2022-07-27T21:30:46.338Z,14.48
2022-07-27T21:35:48.535Z,14.60
2022-07-27T21:40:50.782Z,14.68
2022-07-27T21:45:53.071Z,15.25
2022-07-27T21:50:55.583Z,14.50
2022-07-27T22:01:00.601Z,14.93
2022-07-27T22:06:04.563Z,15.57
2022-07-27T22:11:07.320Z,16.48
2022-07-27T22:16:12.461Z,14.48
2022-07-27T22:21:14.818Z,14.38
2022-07-27T22:26:17.416Z,13.60
2022-07-27T22:31:22.478Z,14.18
2022-07-27T22:36:25.478Z,13.07
2022-07-27T22:41:27.770Z,13.50
2022-07-27T22:46:30.137Z,13.63
2022-07-27T22:51:49.823Z,13.95
2022-07-27T22:56:54.779Z,13.88
2022-07-27T23:01:57.795Z,12.60
2022-07-27T23:07:00.472Z,14.10
2022-07-27T23:17:04.937Z,12.95
2022-07-27T23:22:07.211Z,12.80
2022-07-27T23:27:13.772Z,12.80
2022-07-27T23:32:15.967Z,13.85
2022-07-27T23:37:18.157Z,12.75
2022-07-27T23:42:20.420Z,12.98
2022-07-27T23:47:23.075Z,13.30
2022-07-27T23:52:25.582Z,13.30
